sensor_id;sensor_type;location;lat;lon;timestamp;P1;durP1;ratioP1;P2;durP2;ratioP2
8626;SDS011;4351;51.422;6.794;2022-08-21T00:00:38;8.07;;;4.27;;
8626;SDS011;4351;51.422;6.794;2022-08-21T00:03:10;8.33;;;4.20;;
8626;SDS011;4351;51.422;6.794;2022-08-21T00:05:43;6.03;;;3.90;;
8626;SDS011;4351;51.422;6.794;2022-08-21T00:08:13;9.27;;;4.33;;
8626;SDS011;4351;51.422;6.794;2022-08-21T00:10:41;8.23;;;4.13;;
8626;SDS011;4351;51.422;6.794;2022-08-21T00:13:11;7.03;;;4.37;;
8626;SDS011;4351;51.422;6.794;2022-08-21T00:15:46;7.20;;;3.97;;
8626;SDS011;4351;51.422;6.794;2022-08-21T00:18:15;6.33;;;3.73;;
8626;SDS011;4351;51.422;6.794;2022-08-21T00:20:44;6.77;;;4.13;;
8626;SDS011;4351;51.422;6.794;2022-08-21T00:23:13;9.90;;;5.50;;
8626;SDS011;4351;51.422;6.794;2022-08-21T00:25:42;9.17;;;4.30;;
8626;SDS011;4351;51.422;6.794;2022-08-21T00:28:11;11.20;;;4.27;;
8626;SDS011;4351;51.422;6.794;2022-08-21T00:30:40;6.57;;;4.00;;
8626;SDS011;4351;51.422;6.794;2022-08-21T00:33:11;8.57;;;4.43;;
8626;SDS011;4351;51.422;6.794;2022-08-21T00:35:40;6.87;;;3.83;;
8626;SDS011;4351;51.422;6.794;2022-08-21T00:38:10;8.10;;;3.97;;
8626;SDS011;4351;51.422;6.794;2022-08-21T00:40:39;8.50;;;4.40;;
8626;SDS011;4351;51.422;6.794;2022-08-21T00:43:10;7.53;;;3.93;;
8626;SDS011;4351;51.422;6.794;2022-08-21T00:45:40;9.40;;;3.93;;
8626;SDS011;4351;51.422;6.794;2022-08-21T00:48:08;10.97;;;5.63;;
8626;SDS011;4351;51.422;6.794;2022-08-21T00:50:40;7.57;;;3.50;;
8626;SDS011;4351;51.422;6.794;2022-08-21T00:53:10;8.23;;;4.10;;
8626;SDS011;4351;51.422;6.794;2022-08-21T00:55:40;7.53;;;4.37;;
8626;SDS011;4351;51.422;6.794;2022-08-21T00:58:09;8.80;;;4.27;;
8626;SDS011;4351;51.422;6.794;2022-08-21T01:00:43;9.53;;;5.00;;
8626;SDS011;4351;51.422;6.794;2022-08-21T01:03:16;9.20;;;4.87;;
8626;SDS011;4351;51.422;6.794;2022-08-21T01:05:51;11.77;;;4.83;;
8626;SDS011;4351;51.422;6.794;2022-08-21T01:08:20;9.10;;;4.70;;
8626;SDS011;4351;51.422;6.794;2022-08-21T01:10:49;8.87;;;4.70;;
8626;SDS011;4351;51.422;6.794;2022-08-21T01:13:24;11.20;;;5.43;;
8626;SDS011;4351;51.422;6.794;2022-08-21T01:15:54;8.30;;;4.77;;
8626;SDS011;4351;51.422;6.794;2022-08-21T01:18:26;9.73;;;4.80;;
8626;SDS011;4351;51.422;6.794;2022-08-21T01:21:04;7.43;;;4.43;;
8626;SDS011;4351;51.422;6.794;2022-08-21T01:23:39;9.47;;;4.80;;
8626;SDS011;4351;51.422;6.794;2022-08-21T01:26:09;10.23;;;5.17;;
8626;SDS011;4351;51.422;6.794;2022-08-21T01:28:46;10.87;;;5.07;;
8626;SDS011;4351;51.422;6.794;2022-08-21T01:31:17;8.57;;;4.80;;
8626;SDS011;4351;51.422;6.794;2022-08-21T01:33:51;9.63;;;4.90;;
8626;SDS011;4351;51.422;6.794;2022-08-21T01:36:22;8.03;;;4.60;;
8626;SDS011;4351;51.422;6.794;2022-08-21T01:38:51;10.53;;;5.13;;
8626;SDS011;4351;51.422;6.794;2022-08-21T01:41:19;10.60;;;5.33;;
8626;SDS011;4351;51.422;6.794;2022-08-21T01:43:48;10.97;;;5.20;;
8626;SDS011;4351;51.422;6.794;2022-08-21T01:46:16;9.17;;;4.80;;
8626;SDS011;4351;51.422;6.794;2022-08-21T01:48:48;10.93;;;5.73;;
8626;SDS011;4351;51.422;6.794;2022-08-21T01:51:16;9.63;;;5.50;;
8626;SDS011;4351;51.422;6.794;2022-08-21T01:53:46;12.00;;;5.60;;
8626;SDS011;4351;51.422;6.794;2022-08-21T01:56:14;8.67;;;5.03;;
8626;SDS011;4351;51.422;6.794;2022-08-21T01:58:44;11.70;;;5.77;;
8626;SDS011;4351;51.422;6.794;2022-08-21T02:01:14;9.87;;;5.30;;
8626;SDS011;4351;51.422;6.794;2022-08-21T02:03:43;11.50;;;5.40;;
8626;SDS011;4351;51.422;6.794;2022-08-21T02:06:12;9.93;;;4.70;;
8626;SDS011;4351;51.422;6.794;2022-08-21T02:08:45;9.07;;;5.40;;
8626;SDS011;4351;51.422;6.794;2022-08-21T02:11:14;9.10;;;5.23;;
8626;SDS011;4351;51.422;6.794;2022-08-21T02:13:42;9.10;;;5.37;;
8626;SDS011;4351;51.422;6.794;2022-08-21T02:16:10;8.07;;;4.90;;
8626;SDS011;4351;51.422;6.794;2022-08-21T02:18:45;9.43;;;4.40;;
8626;SDS011;4351;51.422;6.794;2022-08-21T02:21:13;8.97;;;5.80;;
8626;SDS011;4351;51.422;6.794;2022-08-21T02:23:42;11.40;;;6.10;;
8626;SDS011;4351;51.422;6.794;2022-08-21T02:26:12;10.23;;;5.40;;
8626;SDS011;4351;51.422;6.794;2022-08-21T02:28:40;12.97;;;5.57;;
8626;SDS011;4351;51.422;6.794;2022-08-21T02:31:08;10.73;;;6.37;;
8626;SDS011;4351;51.422;6.794;2022-08-21T02:33:37;10.43;;;5.73;;
8626;SDS011;4351;51.422;6.794;2022-08-21T02:36:06;10.07;;;5.70;;
8626;SDS011;4351;51.422;6.794;2022-08-21T02:38:37;8.60;;;6.00;;
8626;SDS011;4351;51.422;6.794;2022-08-21T02:41:09;8.87;;;5.80;;
8626;SDS011;4351;51.422;6.794;2022-08-21T02:43:41;10.50;;;6.07;;
8626;SDS011;4351;51.422;6.794;2022-08-21T02:46:10;11.37;;;5.73;;
8626;SDS011;4351;51.422;6.794;2022-08-21T02:48:41;8.23;;;5.10;;
8626;SDS011;4351;51.422;6.794;2022-08-21T02:51:11;10.07;;;5.40;;
8626;SDS011;4351;51.422;6.794;2022-08-21T02:53:42;8.70;;;5.30;;
8626;SDS011;4351;51.422;6.794;2022-08-21T02:56:11;10.77;;;5.90;;
8626;SDS011;4351;51.422;6.794;2022-08-21T02:58:43;9.43;;;5.70;;
8626;SDS011;4351;51.422;6.794;2022-08-21T03:01:13;7.67;;;4.80;;
8626;SDS011;4351;51.422;6.794;2022-08-21T03:03:42;12.03;;;5.80;;
8626;SDS011;4351;51.422;6.794;2022-08-21T03:06:13;6.90;;;5.23;;
8626;SDS011;4351;51.422;6.794;2022-08-21T03:08:42;10.27;;;5.23;;
8626;SDS011;4351;51.422;6.794;2022-08-21T03:11:12;10.07;;;5.87;;
8626;SDS011;4351;51.422;6.794;2022-08-21T03:13:42;9.83;;;5.90;;
8626;SDS011;4351;51.422;6.794;2022-08-21T03:16:11;8.80;;;5.60;;
8626;SDS011;4351;51.422;6.794;2022-08-21T03:18:39;9.47;;;5.60;;
8626;SDS011;4351;51.422;6.794;2022-08-21T03:21:07;11.23;;;5.10;;
8626;SDS011;4351;51.422;6.794;2022-08-21T03:23:35;12.20;;;6.10;;
8626;SDS011;4351;51.422;6.794;2022-08-21T03:26:06;10.13;;;5.73;;
8626;SDS011;4351;51.422;6.794;2022-08-21T03:28:34;8.87;;;5.70;;
8626;SDS011;4351;51.422;6.794;2022-08-21T03:31:04;8.77;;;5.63;;
8626;SDS011;4351;51.422;6.794;2022-08-21T03:33:32;11.03;;;5.77;;
8626;SDS011;4351;51.422;6.794;2022-08-21T03:36:01;6.83;;;4.97;;
8626;SDS011;4351;51.422;6.794;2022-08-21T03:38:33;7.73;;;5.43;;
8626;SDS011;4351;51.422;6.794;2022-08-21T03:41:03;12.57;;;6.40;;
8626;SDS011;4351;51.422;6.794;2022-08-21T03:43:33;7.80;;;5.80;;
8626;SDS011;4351;51.422;6.794;2022-08-21T03:46:04;11.07;;;5.97;;
8626;SDS011;4351;51.422;6.794;2022-08-21T03:48:33;10.03;;;6.10;;
8626;SDS011;4351;51.422;6.794;2022-08-21T03:51:03;9.33;;;5.57;;
8626;SDS011;4351;51.422;6.794;2022-08-21T03:53:33;10.73;;;6.20;;
8626;SDS011;4351;51.422;6.794;2022-08-21T03:56:02;9.93;;;6.10;;
8626;SDS011;4351;51.422;6.794;2022-08-21T03:58:32;9.30;;;6.33;;
8626;SDS011;4351;51.422;6.794;2022-08-21T04:01:00;13.13;;;6.53;;
8626;SDS011;4351;51.422;6.794;2022-08-21T04:03:33;9.20;;;6.30;;
8626;SDS011;4351;51.422;6.794;2022-08-21T04:06:03;7.77;;;5.67;;
8626;SDS011;4351;51.422;6.794;2022-08-21T04:08:34;10.97;;;7.10;;
8626;SDS011;4351;51.422;6.794;2022-08-21T04:11:03;12.77;;;6.50;;
8626;SDS011;4351;51.422;6.794;2022-08-21T04:13:33;11.17;;;7.03;;
8626;SDS011;4351;51.422;6.794;2022-08-21T04:16:10;10.47;;;6.60;;
8626;SDS011;4351;51.422;6.794;2022-08-21T04:18:39;10.33;;;6.53;;
8626;SDS011;4351;51.422;6.794;2022-08-21T04:21:08;11.40;;;6.77;;
8626;SDS011;4351;51.422;6.794;2022-08-21T04:23:39;12.27;;;6.73;;
8626;SDS011;4351;51.422;6.794;2022-08-21T04:26:07;9.20;;;6.23;;
8626;SDS011;4351;51.422;6.794;2022-08-21T04:28:36;9.53;;;6.23;;
8626;SDS011;4351;51.422;6.794;2022-08-21T04:31:04;8.93;;;7.07;;
8626;SDS011;4351;51.422;6.794;2022-08-21T04:33:33;13.43;;;7.50;;
8626;SDS011;4351;51.422;6.794;2022-08-21T04:36:03;12.70;;;6.90;;
8626;SDS011;4351;51.422;6.794;2022-08-21T04:38:33;9.87;;;7.03;;
8626;SDS011;4351;51.422;6.794;2022-08-21T04:41:03;11.93;;;7.77;;
8626;SDS011;4351;51.422;6.794;2022-08-21T04:43:32;12.47;;;7.50;;
8626;SDS011;4351;51.422;6.794;2022-08-21T04:46:01;12.73;;;7.67;;
8626;SDS011;4351;51.422;6.794;2022-08-21T04:48:29;11.93;;;8.00;;
8626;SDS011;4351;51.422;6.794;2022-08-21T04:50:59;10.87;;;7.53;;
8626;SDS011;4351;51.422;6.794;2022-08-21T04:53:36;11.53;;;7.37;;
8626;SDS011;4351;51.422;6.794;2022-08-21T04:56:07;12.83;;;7.33;;
8626;SDS011;4351;51.422;6.794;2022-08-21T04:58:39;12.43;;;7.77;;
8626;SDS011;4351;51.422;6.794;2022-08-21T05:01:10;12.07;;;7.57;;
8626;SDS011;4351;51.422;6.794;2022-08-21T05:03:43;13.37;;;8.63;;
8626;SDS011;4351;51.422;6.794;2022-08-21T05:06:13;12.17;;;8.90;;
8626;SDS011;4351;51.422;6.794;2022-08-21T05:08:43;13.53;;;8.73;;
8626;SDS011;4351;51.422;6.794;2022-08-21T05:11:15;13.30;;;8.50;;
8626;SDS011;4351;51.422;6.794;2022-08-21T05:13:43;16.63;;;9.43;;
8626;SDS011;4351;51.422;6.794;2022-08-21T05:16:11;12.33;;;8.40;;
8626;SDS011;4351;51.422;6.794;2022-08-21T05:18:59;13.23;;;8.67;;
8626;SDS011;4351;51.422;6.794;2022-08-21T05:21:29;13.83;;;9.10;;
8626;SDS011;4351;51.422;6.794;2022-08-21T05:23:59;13.70;;;9.17;;
8626;SDS011;4351;51.422;6.794;2022-08-21T05:26:27;14.73;;;9.93;;
8626;SDS011;4351;51.422;6.794;2022-08-21T05:28:56;13.70;;;9.50;;
8626;SDS011;4351;51.422;6.794;2022-08-21T05:31:24;11.73;;;9.00;;
8626;SDS011;4351;51.422;6.794;2022-08-21T05:33:52;13.60;;;9.53;;
8626;SDS011;4351;51.422;6.794;2022-08-21T05:36:21;14.67;;;10.10;;
8626;SDS011;4351;51.422;6.794;2022-08-21T05:38:51;16.27;;;10.10;;
8626;SDS011;4351;51.422;6.794;2022-08-21T05:41:19;12.27;;;8.90;;
8626;SDS011;4351;51.422;6.794;2022-08-21T05:43:47;12.67;;;9.57;;
8626;SDS011;4351;51.422;6.794;2022-08-21T05:46:15;14.90;;;10.77;;
8626;SDS011;4351;51.422;6.794;2022-08-21T05:48:44;13.50;;;9.00;;
8626;SDS011;4351;51.422;6.794;2022-08-21T05:51:13;14.60;;;9.80;;
8626;SDS011;4351;51.422;6.794;2022-08-21T05:53:42;12.73;;;9.20;;
8626;SDS011;4351;51.422;6.794;2022-08-21T05:56:13;13.53;;;9.33;;
8626;SDS011;4351;51.422;6.794;2022-08-21T05:58:42;16.90;;;10.40;;
8626;SDS011;4351;51.422;6.794;2022-08-21T06:01:10;16.13;;;9.67;;
8626;SDS011;4351;51.422;6.794;2022-08-21T06:03:40;15.13;;;10.33;;
8626;SDS011;4351;51.422;6.794;2022-08-21T06:06:09;14.87;;;9.37;;
8626;SDS011;4351;51.422;6.794;2022-08-21T06:08:37;16.33;;;11.00;;
8626;SDS011;4351;51.422;6.794;2022-08-21T06:11:06;15.07;;;9.50;;
8626;SDS011;4351;51.422;6.794;2022-08-21T06:13:36;15.53;;;10.10;;
8626;SDS011;4351;51.422;6.794;2022-08-21T06:16:06;11.10;;;9.20;;
8626;SDS011;4351;51.422;6.794;2022-08-21T06:18:41;15.83;;;10.77;;
8626;SDS011;4351;51.422;6.794;2022-08-21T06:21:10;14.47;;;9.37;;
8626;SDS011;4351;51.422;6.794;2022-08-21T06:23:40;15.20;;;10.17;;
8626;SDS011;4351;51.422;6.794;2022-08-21T06:26:09;13.63;;;9.13;;
8626;SDS011;4351;51.422;6.794;2022-08-21T06:28:41;13.27;;;9.47;;
8626;SDS011;4351;51.422;6.794;2022-08-21T06:31:11;13.03;;;9.60;;
8626;SDS011;4351;51.422;6.794;2022-08-21T06:33:40;12.27;;;9.17;;
8626;SDS011;4351;51.422;6.794;2022-08-21T06:36:09;11.87;;;7.53;;
8626;SDS011;4351;51.422;6.794;2022-08-21T06:38:37;11.53;;;7.30;;
8626;SDS011;4351;51.422;6.794;2022-08-21T06:41:06;10.27;;;7.47;;
8626;SDS011;4351;51.422;6.794;2022-08-21T06:43:35;13.03;;;7.03;;
8626;SDS011;4351;51.422;6.794;2022-08-21T06:46:07;11.10;;;6.50;;
8626;SDS011;4351;51.422;6.794;2022-08-21T06:48:35;11.70;;;6.53;;
8626;SDS011;4351;51.422;6.794;2022-08-21T06:51:04;21.37;;;6.23;;
8626;SDS011;4351;51.422;6.794;2022-08-21T06:53:32;9.23;;;5.93;;
8626;SDS011;4351;51.422;6.794;2022-08-21T06:56:01;9.37;;;5.60;;
8626;SDS011;4351;51.422;6.794;2022-08-21T06:58:30;13.53;;;5.90;;
8626;SDS011;4351;51.422;6.794;2022-08-21T07:00:58;12.47;;;5.70;;
8626;SDS011;4351;51.422;6.794;2022-08-21T07:03:29;8.93;;;6.00;;
8626;SDS011;4351;51.422;6.794;2022-08-21T07:06:03;13.20;;;5.67;;
8626;SDS011;4351;51.422;6.794;2022-08-21T07:08:32;11.37;;;5.13;;
8626;SDS011;4351;51.422;6.794;2022-08-21T07:11:01;14.83;;;5.30;;
8626;SDS011;4351;51.422;6.794;2022-08-21T07:13:35;13.97;;;6.00;;
8626;SDS011;4351;51.422;6.794;2022-08-21T07:16:10;11.37;;;5.67;;
8626;SDS011;4351;51.422;6.794;2022-08-21T07:18:40;16.47;;;6.33;;
8626;SDS011;4351;51.422;6.794;2022-08-21T07:21:08;17.30;;;6.00;;
8626;SDS011;4351;51.422;6.794;2022-08-21T07:23:54;11.77;;;5.50;;
8626;SDS011;4351;51.422;6.794;2022-08-21T07:26:26;14.17;;;5.50;;
8626;SDS011;4351;51.422;6.794;2022-08-21T07:28:57;12.23;;;5.63;;
8626;SDS011;4351;51.422;6.794;2022-08-21T07:31:25;11.97;;;5.50;;
8626;SDS011;4351;51.422;6.794;2022-08-21T07:34:01;9.17;;;5.00;;
8626;SDS011;4351;51.422;6.794;2022-08-21T07:36:58;11.57;;;4.60;;
8626;SDS011;4351;51.422;6.794;2022-08-21T07:42:32;10.50;;;4.10;;
8626;SDS011;4351;51.422;6.794;2022-08-21T07:45:00;9.47;;;3.83;;
8626;SDS011;4351;51.422;6.794;2022-08-21T07:47:28;7.83;;;3.47;;
8626;SDS011;4351;51.422;6.794;2022-08-21T07:50:10;11.03;;;3.60;;
8626;SDS011;4351;51.422;6.794;2022-08-21T07:52:39;7.70;;;3.33;;
8626;SDS011;4351;51.422;6.794;2022-08-21T07:55:08;9.17;;;3.23;;
8626;SDS011;4351;51.422;6.794;2022-08-21T07:57:38;6.37;;;3.30;;
8626;SDS011;4351;51.422;6.794;2022-08-21T08:00:16;6.77;;;2.80;;
8626;SDS011;4351;51.422;6.794;2022-08-21T08:02:48;5.13;;;2.47;;
8626;SDS011;4351;51.422;6.794;2022-08-21T08:05:37;5.90;;;2.00;;
8626;SDS011;4351;51.422;6.794;2022-08-21T08:08:11;7.37;;;1.90;;
8626;SDS011;4351;51.422;6.794;2022-08-21T08:10:43;7.00;;;2.07;;
8626;SDS011;4351;51.422;6.794;2022-08-21T08:13:24;8.03;;;2.27;;
8626;SDS011;4351;51.422;6.794;2022-08-21T08:16:04;5.00;;;1.93;;
8626;SDS011;4351;51.422;6.794;2022-08-21T08:18:46;5.87;;;1.87;;
8626;SDS011;4351;51.422;6.794;2022-08-21T08:28:20;5.77;;;1.90;;
8626;SDS011;4351;51.422;6.794;2022-08-21T08:31:00;4.17;;;1.70;;
8626;SDS011;4351;51.422;6.794;2022-08-21T08:50:44;6.17;;;1.43;;
8626;SDS011;4351;51.422;6.794;2022-08-21T08:53:17;3.60;;;1.40;;
8626;SDS011;4351;51.422;6.794;2022-08-21T08:55:50;7.83;;;1.50;;
8626;SDS011;4351;51.422;6.794;2022-08-21T08:58:22;5.90;;;1.53;;
8626;SDS011;4351;51.422;6.794;2022-08-21T09:00:55;5.40;;;1.83;;
8626;SDS011;4351;51.422;6.794;2022-08-21T09:03:25;3.63;;;1.47;;
8626;SDS011;4351;51.422;6.794;2022-08-21T09:05:59;4.73;;;1.40;;
8626;SDS011;4351;51.422;6.794;2022-08-21T09:08:57;5.73;;;1.50;;
8626;SDS011;4351;51.422;6.794;2022-08-21T09:11:32;6.33;;;1.60;;
8626;SDS011;4351;51.422;6.794;2022-08-21T09:14:17;3.90;;;1.50;;
8626;SDS011;4351;51.422;6.794;2022-08-21T09:17:03;6.70;;;1.63;;
8626;SDS011;4351;51.422;6.794;2022-08-21T09:19:44;5.50;;;1.60;;
8626;SDS011;4351;51.422;6.794;2022-08-21T09:22:32;6.10;;;1.60;;
8626;SDS011;4351;51.422;6.794;2022-08-21T09:25:15;5.00;;;1.60;;
8626;SDS011;4351;51.422;6.794;2022-08-21T09:27:50;5.03;;;1.70;;
8626;SDS011;4351;51.422;6.794;2022-08-21T09:30:19;5.17;;;1.50;;
8626;SDS011;4351;51.422;6.794;2022-08-21T09:32:56;5.03;;;1.73;;
8626;SDS011;4351;51.422;6.794;2022-08-21T11:43:31;3.20;;;1.10;;
8626;SDS011;4351;51.422;6.794;2022-08-21T11:46:20;1.30;;;0.90;;
8626;SDS011;4351;51.422;6.794;2022-08-21T11:52:16;3.07;;;1.17;;
8626;SDS011;4351;51.422;6.794;2022-08-21T11:54:52;2.23;;;0.90;;
8626;SDS011;4351;51.422;6.794;2022-08-21T11:57:37;2.63;;;0.80;;
8626;SDS011;4351;51.422;6.794;2022-08-21T12:29:49;2.63;;;1.03;;
8626;SDS011;4351;51.422;6.794;2022-08-21T12:32:22;4.83;;;1.57;;
8626;SDS011;4351;51.422;6.794;2022-08-21T12:35:06;2.83;;;0.87;;
8626;SDS011;4351;51.422;6.794;2022-08-21T12:42:16;2.67;;;1.20;;
8626;SDS011;4351;51.422;6.794;2022-08-21T12:44:52;3.73;;;1.27;;
8626;SDS011;4351;51.422;6.794;2022-08-21T12:47:25;2.40;;;1.00;;
8626;SDS011;4351;51.422;6.794;2022-08-21T12:50:00;2.77;;;1.13;;
8626;SDS011;4351;51.422;6.794;2022-08-21T12:52:34;1.87;;;1.10;;
8626;SDS011;4351;51.422;6.794;2022-08-21T12:55:06;3.20;;;0.97;;
8626;SDS011;4351;51.422;6.794;2022-08-21T12:57:35;4.27;;;1.00;;
8626;SDS011;4351;51.422;6.794;2022-08-21T13:00:08;5.07;;;1.20;;
8626;SDS011;4351;51.422;6.794;2022-08-21T13:02:43;4.67;;;1.60;;
8626;SDS011;4351;51.422;6.794;2022-08-21T13:05:32;3.60;;;1.20;;
8626;SDS011;4351;51.422;6.794;2022-08-21T13:08:08;4.17;;;1.30;;
8626;SDS011;4351;51.422;6.794;2022-08-21T13:11:06;2.27;;;1.00;;
8626;SDS011;4351;51.422;6.794;2022-08-21T13:17:14;2.80;;;1.00;;
8626;SDS011;4351;51.422;6.794;2022-08-21T13:19:55;2.73;;;1.20;;
8626;SDS011;4351;51.422;6.794;2022-08-21T13:22:26;6.73;;;1.13;;
8626;SDS011;4351;51.422;6.794;2022-08-21T13:25:00;3.80;;;1.10;;
8626;SDS011;4351;51.422;6.794;2022-08-21T13:27:33;3.17;;;1.20;;
8626;SDS011;4351;51.422;6.794;2022-08-21T13:30:03;3.47;;;1.17;;
8626;SDS011;4351;51.422;6.794;2022-08-21T13:32:48;2.70;;;1.07;;
8626;SDS011;4351;51.422;6.794;2022-08-21T13:35:22;4.30;;;1.20;;
8626;SDS011;4351;51.422;6.794;2022-08-21T13:38:07;5.57;;;1.30;;
8626;SDS011;4351;51.422;6.794;2022-08-21T13:40:39;3.23;;;1.13;;
8626;SDS011;4351;51.422;6.794;2022-08-21T13:43:25;3.90;;;1.30;;
8626;SDS011;4351;51.422;6.794;2022-08-21T13:46:09;3.47;;;1.00;;
8626;SDS011;4351;51.422;6.794;2022-08-21T13:49:12;3.77;;;1.20;;
8626;SDS011;4351;51.422;6.794;2022-08-21T13:52:19;5.03;;;1.00;;
8626;SDS011;4351;51.422;6.794;2022-08-21T13:55:08;3.53;;;1.43;;
8626;SDS011;4351;51.422;6.794;2022-08-21T13:58:26;3.20;;;1.20;;
8626;SDS011;4351;51.422;6.794;2022-08-21T14:01:01;3.30;;;1.00;;
8626;SDS011;4351;51.422;6.794;2022-08-21T14:06:41;4.03;;;1.50;;
8626;SDS011;4351;51.422;6.794;2022-08-21T14:09:12;1.80;;;0.90;;
8626;SDS011;4351;51.422;6.794;2022-08-21T14:12:11;3.00;;;1.20;;
8626;SDS011;4351;51.422;6.794;2022-08-21T14:15:34;1.83;;;1.10;;
8626;SDS011;4351;51.422;6.794;2022-08-21T14:18:27;2.30;;;0.90;;
8626;SDS011;4351;51.422;6.794;2022-08-21T14:21:05;3.13;;;0.93;;
8626;SDS011;4351;51.422;6.794;2022-08-21T14:24:13;2.27;;;1.27;;
8626;SDS011;4351;51.422;6.794;2022-08-21T14:28:14;3.67;;;1.17;;
8626;SDS011;4351;51.422;6.794;2022-08-21T14:31:17;3.33;;;0.97;;
8626;SDS011;4351;51.422;6.794;2022-08-21T14:34:14;4.27;;;1.33;;
8626;SDS011;4351;51.422;6.794;2022-08-21T14:37:01;4.73;;;1.20;;
8626;SDS011;4351;51.422;6.794;2022-08-21T14:40:27;3.37;;;1.30;;
8626;SDS011;4351;51.422;6.794;2022-08-21T14:43:08;4.60;;;1.47;;
8626;SDS011;4351;51.422;6.794;2022-08-21T14:57:51;3.43;;;1.33;;
8626;SDS011;4351;51.422;6.794;2022-08-21T15:01:10;3.13;;;1.57;;
8626;SDS011;4351;51.422;6.794;2022-08-21T15:04:05;2.67;;;1.27;;
8626;SDS011;4351;51.422;6.794;2022-08-21T15:06:54;3.00;;;1.30;;
8626;SDS011;4351;51.422;6.794;2022-08-21T15:09:25;5.90;;;1.67;;
8626;SDS011;4351;51.422;6.794;2022-08-21T15:11:55;3.13;;;1.40;;
8626;SDS011;4351;51.422;6.794;2022-08-21T15:14:29;6.23;;;1.80;;
8626;SDS011;4351;51.422;6.794;2022-08-21T15:17:02;3.27;;;1.27;;
8626;SDS011;4351;51.422;6.794;2022-08-21T15:19:49;4.90;;;1.40;;
8626;SDS011;4351;51.422;6.794;2022-08-21T15:22:26;5.43;;;1.50;;
8626;SDS011;4351;51.422;6.794;2022-08-21T15:24:55;4.30;;;1.40;;
8626;SDS011;4351;51.422;6.794;2022-08-21T15:27:26;4.43;;;1.40;;
8626;SDS011;4351;51.422;6.794;2022-08-21T15:29:56;4.60;;;1.30;;
8626;SDS011;4351;51.422;6.794;2022-08-21T15:32:25;5.80;;;1.40;;
8626;SDS011;4351;51.422;6.794;2022-08-21T15:34:57;5.07;;;1.40;;
8626;SDS011;4351;51.422;6.794;2022-08-21T15:37:25;3.43;;;1.20;;
8626;SDS011;4351;51.422;6.794;2022-08-21T15:39:53;4.60;;;1.23;;
8626;SDS011;4351;51.422;6.794;2022-08-21T15:42:22;5.17;;;1.70;;
8626;SDS011;4351;51.422;6.794;2022-08-21T15:44:53;4.23;;;1.70;;
8626;SDS011;4351;51.422;6.794;2022-08-21T15:47:28;5.83;;;1.30;;
8626;SDS011;4351;51.422;6.794;2022-08-21T15:50:00;2.60;;;1.20;;
8626;SDS011;4351;51.422;6.794;2022-08-21T15:52:28;6.00;;;1.43;;
8626;SDS011;4351;51.422;6.794;2022-08-21T15:54:56;3.23;;;1.27;;
8626;SDS011;4351;51.422;6.794;2022-08-21T15:57:25;3.87;;;1.33;;
8626;SDS011;4351;51.422;6.794;2022-08-21T15:59:56;2.17;;;1.10;;
8626;SDS011;4351;51.422;6.794;2022-08-21T16:02:39;2.40;;;1.20;;
8626;SDS011;4351;51.422;6.794;2022-08-21T16:05:10;2.93;;;1.30;;
8626;SDS011;4351;51.422;6.794;2022-08-21T16:07:39;4.57;;;1.23;;
8626;SDS011;4351;51.422;6.794;2022-08-21T16:10:07;3.37;;;1.43;;
8626;SDS011;4351;51.422;6.794;2022-08-21T16:12:37;5.33;;;1.40;;
8626;SDS011;4351;51.422;6.794;2022-08-21T16:15:10;4.23;;;1.33;;
8626;SDS011;4351;51.422;6.794;2022-08-21T16:17:47;2.57;;;1.10;;
8626;SDS011;4351;51.422;6.794;2022-08-21T16:20:18;3.67;;;1.27;;
8626;SDS011;4351;51.422;6.794;2022-08-21T16:22:48;3.17;;;1.40;;
8626;SDS011;4351;51.422;6.794;2022-08-21T16:25:16;3.10;;;1.00;;
8626;SDS011;4351;51.422;6.794;2022-08-21T16:27:46;2.60;;;1.37;;
8626;SDS011;4351;51.422;6.794;2022-08-21T16:30:20;3.33;;;1.30;;
8626;SDS011;4351;51.422;6.794;2022-08-21T16:35:43;3.40;;;1.20;;
8626;SDS011;4351;51.422;6.794;2022-08-21T16:38:15;4.17;;;1.30;;
8626;SDS011;4351;51.422;6.794;2022-08-21T16:40:43;2.83;;;1.40;;
8626;SDS011;4351;51.422;6.794;2022-08-21T16:43:13;4.27;;;1.33;;
8626;SDS011;4351;51.422;6.794;2022-08-21T16:45:48;10.37;;;1.50;;
8626;SDS011;4351;51.422;6.794;2022-08-21T16:48:17;6.03;;;1.40;;
8626;SDS011;4351;51.422;6.794;2022-08-21T16:50:46;3.23;;;1.40;;
8626;SDS011;4351;51.422;6.794;2022-08-21T16:53:16;6.13;;;1.40;;
8626;SDS011;4351;51.422;6.794;2022-08-21T16:55:44;4.40;;;1.70;;
8626;SDS011;4351;51.422;6.794;2022-08-21T16:58:14;2.87;;;1.43;;
8626;SDS011;4351;51.422;6.794;2022-08-21T17:00:46;4.90;;;1.20;;
8626;SDS011;4351;51.422;6.794;2022-08-21T17:03:31;3.37;;;1.40;;
8626;SDS011;4351;51.422;6.794;2022-08-21T17:06:04;2.90;;;1.47;;
8626;SDS011;4351;51.422;6.794;2022-08-21T17:08:35;5.37;;;1.57;;
8626;SDS011;4351;51.422;6.794;2022-08-21T17:11:10;5.40;;;1.87;;
8626;SDS011;4351;51.422;6.794;2022-08-21T17:14:07;4.30;;;1.37;;
8626;SDS011;4351;51.422;6.794;2022-08-21T17:16:40;3.43;;;1.60;;
8626;SDS011;4351;51.422;6.794;2022-08-21T17:19:14;3.67;;;1.50;;
8626;SDS011;4351;51.422;6.794;2022-08-21T17:21:44;3.27;;;1.30;;
8626;SDS011;4351;51.422;6.794;2022-08-21T17:24:13;2.37;;;1.40;;
8626;SDS011;4351;51.422;6.794;2022-08-21T17:26:42;2.47;;;1.60;;
8626;SDS011;4351;51.422;6.794;2022-08-21T17:29:14;3.93;;;1.93;;
8626;SDS011;4351;51.422;6.794;2022-08-21T17:31:45;3.20;;;1.90;;
8626;SDS011;4351;51.422;6.794;2022-08-21T17:34:17;5.23;;;2.27;;
8626;SDS011;4351;51.422;6.794;2022-08-21T17:36:57;6.40;;;1.60;;
8626;SDS011;4351;51.422;6.794;2022-08-21T17:39:38;3.13;;;1.67;;
8626;SDS011;4351;51.422;6.794;2022-08-21T17:42:09;4.07;;;2.10;;
8626;SDS011;4351;51.422;6.794;2022-08-21T17:44:45;5.13;;;2.00;;
8626;SDS011;4351;51.422;6.794;2022-08-21T17:47:15;4.80;;;2.17;;
8626;SDS011;4351;51.422;6.794;2022-08-21T17:49:47;6.83;;;2.10;;
8626;SDS011;4351;51.422;6.794;2022-08-21T17:52:15;3.13;;;1.83;;
8626;SDS011;4351;51.422;6.794;2022-08-21T17:54:43;4.63;;;2.10;;
8626;SDS011;4351;51.422;6.794;2022-08-21T17:57:13;5.00;;;2.03;;
8626;SDS011;4351;51.422;6.794;2022-08-21T17:59:48;5.60;;;1.80;;
8626;SDS011;4351;51.422;6.794;2022-08-21T18:02:24;6.00;;;2.17;;
8626;SDS011;4351;51.422;6.794;2022-08-21T18:05:09;6.63;;;2.37;;
8626;SDS011;4351;51.422;6.794;2022-08-21T18:07:40;5.10;;;2.33;;
8626;SDS011;4351;51.422;6.794;2022-08-21T18:10:11;4.67;;;1.97;;
8626;SDS011;4351;51.422;6.794;2022-08-21T18:12:43;2.70;;;2.03;;
8626;SDS011;4351;51.422;6.794;2022-08-21T18:15:15;4.67;;;2.00;;
8626;SDS011;4351;51.422;6.794;2022-08-21T18:17:47;4.37;;;2.37;;
8626;SDS011;4351;51.422;6.794;2022-08-21T18:20:21;4.30;;;2.07;;
8626;SDS011;4351;51.422;6.794;2022-08-21T18:26:10;5.93;;;2.00;;
8626;SDS011;4351;51.422;6.794;2022-08-21T18:28:48;3.70;;;1.80;;
8626;SDS011;4351;51.422;6.794;2022-08-21T18:31:25;5.80;;;2.13;;
8626;SDS011;4351;51.422;6.794;2022-08-21T18:33:57;3.23;;;2.10;;
8626;SDS011;4351;51.422;6.794;2022-08-21T18:36:29;3.47;;;1.73;;
8626;SDS011;4351;51.422;6.794;2022-08-21T18:39:00;6.57;;;2.10;;
8626;SDS011;4351;51.422;6.794;2022-08-21T18:41:50;7.17;;;2.30;;
8626;SDS011;4351;51.422;6.794;2022-08-21T18:44:23;5.70;;;2.23;;
8626;SDS011;4351;51.422;6.794;2022-08-21T18:46:57;2.63;;;1.70;;
8626;SDS011;4351;51.422;6.794;2022-08-21T18:49:33;5.67;;;2.40;;
8626;SDS011;4351;51.422;6.794;2022-08-21T18:52:11;5.40;;;2.07;;
8626;SDS011;4351;51.422;6.794;2022-08-21T18:54:43;7.33;;;2.30;;
8626;SDS011;4351;51.422;6.794;2022-08-21T18:57:16;4.93;;;2.33;;
8626;SDS011;4351;51.422;6.794;2022-08-21T18:59:46;4.73;;;2.23;;
8626;SDS011;4351;51.422;6.794;2022-08-21T19:02:26;4.33;;;2.13;;
8626;SDS011;4351;51.422;6.794;2022-08-21T19:04:59;8.37;;;2.20;;
8626;SDS011;4351;51.422;6.794;2022-08-21T19:07:44;7.00;;;2.20;;
8626;SDS011;4351;51.422;6.794;2022-08-21T19:10:13;6.57;;;2.40;;
8626;SDS011;4351;51.422;6.794;2022-08-21T19:12:54;4.07;;;1.97;;
8626;SDS011;4351;51.422;6.794;2022-08-21T19:15:26;6.37;;;2.20;;
8626;SDS011;4351;51.422;6.794;2022-08-21T19:17:55;6.67;;;2.47;;
8626;SDS011;4351;51.422;6.794;2022-08-21T19:20:29;4.33;;;2.10;;
8626;SDS011;4351;51.422;6.794;2022-08-21T19:23:04;5.43;;;2.10;;
8626;SDS011;4351;51.422;6.794;2022-08-21T19:25:35;5.40;;;2.13;;
8626;SDS011;4351;51.422;6.794;2022-08-21T19:28:08;4.70;;;2.10;;